Time;durP1;ratioP1;P1;durP2;ratioP2;P2;SDS_P1;SDS_P2;PMS_P1;PMS_P2;Temp;Humidity;BMP_temperature;BMP_pressure;BME280_temperature;BME280_humidity;BME280_pressure;Samples;Min_cycle;Max_cycle;Signal;HPM_P1;HPM_P2
2023/02/25 00:02:01;;;;;;;5.05;1.58;;;;;;;;;;6127047;23;20375;-82
2023/02/25 00:04:29;;;;;;;3.15;1.30;;;;;;;;;;6153521;23;20836;-83
2023/02/25 00:06:57;;;;;;;4.65;1.80;;;;;;;;;;6152926;23;20363;-83
2023/02/25 00:09:30;;;;;;;4.75;1.60;;;;;;;;;;6163299;23;20684;-82
2023/02/25 00:12:03;;;;;;;4.00;1.60;;;;;;;;;;6127192;23;20713;-83
2023/02/25 00:14:36;;;;;;;6.68;1.70;;;;;;;;;;6162842;23;20852;-83
2023/02/25 00:17:10;;;;;;;4.10;1.40;;;;;;;;;;6127164;23;20383;-83
2023/02/25 00:19:39;;;;;;;6.80;1.60;;;;;;;;;;6152995;23;20478;-82
2023/02/25 00:22:06;;;;;;;5.85;1.70;;;;;;;;;;6152263;23;20359;-83
2023/02/25 00:24:39;;;;;;;5.10;1.83;;;;;;;;;;6126337;23;20395;-82
2023/02/25 00:27:07;;;;;;;3.83;1.45;;;;;;;;;;6152794;23;20359;-83
2023/02/25 00:29:35;;;;;;;3.92;1.80;;;;;;;;;;6126155;23;20383;-82
2023/02/25 00:32:08;;;;;;;7.05;1.75;;;;;;;;;;6150391;23;20383;-83
2023/02/25 00:34:42;;;;;;;4.03;1.55;;;;;;;;;;6126649;23;20390;-82
2023/02/25 00:37:15;;;;;;;3.88;1.52;;;;;;;;;;6162986;23;20386;-83
2023/02/25 00:39:47;;;;;;;3.97;1.40;;;;;;;;;;6163042;23;20379;-82
2023/02/25 00:42:20;;;;;;;4.22;1.20;;;;;;;;;;6162705;23;20684;-83
2023/02/25 00:44:49;;;;;;;4.85;1.67;;;;;;;;;;6126654;23;20383;-84
2023/02/25 00:47:22;;;;;;;4.13;1.42;;;;;;;;;;6126267;23;20661;-83
2023/02/25 00:49:57;;;;;;;4.18;1.40;;;;;;;;;;6150207;23;20390;-83
2023/02/25 00:52:29;;;;;;;3.30;1.50;;;;;;;;;;6153399;23;20705;-83
2023/02/25 00:55:02;;;;;;;4.13;1.50;;;;;;;;;;6162721;23;20375;-84
2023/02/25 00:57:35;;;;;;;3.92;1.40;;;;;;;;;;6162629;23;20378;-83
2023/02/25 01:00:14;;;;;;;4.68;1.67;;;;;;;;;;6162631;23;20382;-83
2023/02/25 01:02:44;;;;;;;3.75;1.40;;;;;;;;;;6152306;23;21032;-83
2023/02/25 01:05:18;;;;;;;3.97;1.55;;;;;;;;;;6126228;23;20398;-82
2023/02/25 01:07:51;;;;;;;3.97;1.58;;;;;;;;;;6149757;23;20390;-83
2023/02/25 01:10:24;;;;;;;2.50;1.35;;;;;;;;;;6162562;23;20402;-84
2023/02/25 01:12:51;;;;;;;2.63;1.30;;;;;;;;;;6152656;23;20683;-83
2023/02/25 01:15:24;;;;;;;4.18;1.52;;;;;;;;;;6150418;23;20704;-83
2023/02/25 01:17:52;;;;;;;3.92;1.80;;;;;;;;;;6125632;23;20387;-83
2023/02/25 01:20:28;;;;;;;6.00;1.75;;;;;;;;;;6126883;23;20378;-82
2023/02/25 01:23:01;;;;;;;4.47;1.88;;;;;;;;;;6150905;23;20393;-83
2023/02/25 01:25:30;;;;;;;3.30;1.50;;;;;;;;;;6153074;23;20367;-83
2023/02/25 01:28:02;;;;;;;4.65;1.35;;;;;;;;;;6162318;23;20398;-82
2023/02/25 01:30:35;;;;;;;4.75;1.70;;;;;;;;;;6150471;23;20387;-82
2023/02/25 01:33:08;;;;;;;5.27;1.60;;;;;;;;;;6162519;23;20386;-82
2023/02/25 01:35:42;;;;;;;6.25;1.77;;;;;;;;;;6126502;23;20383;-83
2023/02/25 01:38:15;;;;;;;5.07;1.70;;;;;;;;;;6125452;23;20395;-82
2023/02/25 01:40:48;;;;;;;5.43;2.07;;;;;;;;;;6162718;23;20459;-82
2023/02/25 01:43:21;;;;;;;4.17;1.70;;;;;;;;;;6150466;23;20724;-82
2023/02/25 01:45:48;;;;;;;5.82;1.90;;;;;;;;;;6125780;23;20383;-83
2023/02/25 01:48:22;;;;;;;5.80;1.90;;;;;;;;;;6126363;23;20379;-83
2023/02/25 01:50:58;;;;;;;4.85;2.03;;;;;;;;;;6159850;23;20390;-82
2023/02/25 01:53:28;;;;;;;6.57;2.60;;;;;;;;;;6126006;23;20678;-82
2023/02/25 01:56:01;;;;;;;5.07;2.00;;;;;;;;;;6149928;23;20472;-82
2023/02/25 01:58:36;;;;;;;5.27;2.03;;;;;;;;;;6125453;23;20396;-82
2023/02/25 02:01:10;;;;;;;5.60;1.80;;;;;;;;;;6150110;23;20708;-84
2023/02/25 02:03:43;;;;;;;4.60;2.05;;;;;;;;;;6150572;23;20382;-82
2023/02/25 02:06:19;;;;;;;6.82;2.35;;;;;;;;;;6125770;23;20856;-82
2023/02/25 02:08:52;;;;;;;5.20;2.17;;;;;;;;;;6162533;23;20375;-83
2023/02/25 02:11:25;;;;;;;6.55;2.08;;;;;;;;;;6125921;23;20388;-82
2023/02/25 02:14:01;;;;;;;5.95;2.60;;;;;;;;;;6150591;23;20844;-82
2023/02/25 02:16:40;;;;;;;8.10;2.50;;;;;;;;;;6125730;23;20387;-82
2023/02/25 02:19:21;;;;;;;5.68;2.47;;;;;;;;;;6160713;23;20438;-83
2023/02/25 02:21:55;;;;;;;6.03;2.25;;;;;;;;;;6164088;23;20839;-82
2023/02/25 02:24:41;;;;;;;5.07;2.22;;;;;;;;;;6128283;23;20397;-82
2023/02/25 02:27:10;;;;;;;5.95;2.00;;;;;;;;;;6151527;23;20390;-82
2023/02/25 02:30:08;;;;;;;6.32;1.83;;;;;;;;;;6164431;23;20382;-83
2023/02/25 02:32:40;;;;;;;5.20;1.80;;;;;;;;;;6127204;23;20681;-82
2023/02/25 02:35:19;;;;;;;6.90;2.00;;;;;;;;;;6127731;23;20389;-84
2023/02/25 02:37:57;;;;;;;6.00;2.05;;;;;;;;;;6163990;23;20820;-82
2023/02/25 02:40:31;;;;;;;7.00;2.03;;;;;;;;;;6128239;23;20379;-82
2023/02/25 02:43:08;;;;;;;3.83;1.70;;;;;;;;;;6164252;23;20390;-82
2023/02/25 02:45:44;;;;;;;4.90;1.85;;;;;;;;;;6151897;23;21160;-83
2023/02/25 02:48:20;;;;;;;4.13;1.83;;;;;;;;;;6164202;23;20816;-83
2023/02/25 02:50:55;;;;;;;7.40;2.00;;;;;;;;;;6152234;23;20390;-83
2023/02/25 02:53:25;;;;;;;6.10;1.90;;;;;;;;;;6154507;23;20367;-82
2023/02/25 02:55:59;;;;;;;7.43;1.90;;;;;;;;;;6127004;23;20398;-83
2023/02/25 02:58:34;;;;;;;3.97;1.50;;;;;;;;;;6152290;23;20398;-82
2023/02/25 03:01:05;;;;;;;6.50;1.92;;;;;;;;;;6127401;23;20379;-83
2023/02/25 03:03:36;;;;;;;7.10;1.70;;;;;;;;;;6151367;23;20387;-82
2023/02/25 03:06:11;;;;;;;5.18;1.80;;;;;;;;;;6151231;23;20383;-82
2023/02/25 03:08:46;;;;;;;5.68;1.80;;;;;;;;;;6127848;23;20690;-83
2023/02/25 03:11:14;;;;;;;5.45;1.73;;;;;;;;;;6154274;23;20373;-82
2023/02/25 03:13:45;;;;;;;5.28;1.80;;;;;;;;;;6127722;23;20686;-82
2023/02/25 03:16:14;;;;;;;6.90;1.88;;;;;;;;;;6127893;23;20386;-83
2023/02/25 03:18:51;;;;;;;7.30;1.67;;;;;;;;;;6150905;23;20390;-84
2023/02/25 03:21:21;;;;;;;3.37;1.50;;;;;;;;;;6127657;23;20879;-82
2023/02/25 03:23:54;;;;;;;6.30;1.70;;;;;;;;;;6127099;23;20394;-82
2023/02/25 03:26:28;;;;;;;7.25;1.70;;;;;;;;;;6127113;23;20391;-83
2023/02/25 03:29:03;;;;;;;6.97;1.65;;;;;;;;;;6127544;23;20867;-84
2023/02/25 03:31:38;;;;;;;9.02;1.60;;;;;;;;;;6127319;23;20387;-82
2023/02/25 03:34:15;;;;;;;5.40;1.42;;;;;;;;;;6150785;23;20391;-82
2023/02/25 03:36:50;;;;;;;6.27;1.60;;;;;;;;;;6126156;23;20852;-82
2023/02/25 03:39:26;;;;;;;3.20;1.38;;;;;;;;;;6163404;23;20387;-83
2023/02/25 03:42:02;;;;;;;6.50;1.42;;;;;;;;;;6126894;23;20375;-84
2023/02/25 03:44:32;;;;;;;5.10;1.38;;;;;;;;;;6126655;23;20387;-82
2023/02/25 03:47:03;;;;;;;4.80;1.20;;;;;;;;;;6127389;23;21248;-83
2023/02/25 03:49:40;;;;;;;5.20;1.55;;;;;;;;;;6126959;23;20383;-82
2023/02/25 03:52:15;;;;;;;5.60;1.20;;;;;;;;;;6151061;23;20379;-82
2023/02/25 03:54:44;;;;;;;4.63;1.10;;;;;;;;;;6126757;23;20389;-83
2023/02/25 03:57:11;;;;;;;4.95;1.10;;;;;;;;;;6126122;23;20383;-83
2023/02/25 03:59:44;;;;;;;5.20;1.40;;;;;;;;;;6150619;23;20382;-82
2023/02/25 04:02:13;;;;;;;7.50;1.30;;;;;;;;;;6125785;23;20390;-83
2023/02/25 04:04:47;;;;;;;5.60;1.27;;;;;;;;;;6163149;23;20375;-83
2023/02/25 04:07:15;;;;;;;4.57;1.20;;;;;;;;;;6126966;23;20417;-82
2023/02/25 04:09:48;;;;;;;4.27;1.20;;;;;;;;;;6127401;23;20390;-82
2023/02/25 04:12:20;;;;;;;5.25;1.20;;;;;;;;;;6151123;23;20382;-83
2023/02/25 04:14:49;;;;;;;4.65;1.10;;;;;;;;;;6151168;23;20383;-83
2023/02/25 04:17:21;;;;;;;5.75;1.02;;;;;;;;;;6163549;23;20398;-83
2023/02/25 04:19:56;;;;;;;3.40;1.00;;;;;;;;;;6126310;23;20421;-83
2023/02/25 04:22:28;;;;;;;3.50;1.20;;;;;;;;;;6163347;23;20386;-83
2023/02/25 04:25:01;;;;;;;2.53;1.05;;;;;;;;;;6162908;23;20386;-83
2023/02/25 04:27:34;;;;;;;5.30;1.10;;;;;;;;;;6150548;23;20840;-83
2023/02/25 04:30:07;;;;;;;2.97;0.95;;;;;;;;;;6126681;23;20386;-82
2023/02/25 04:32:40;;;;;;;4.57;1.20;;;;;;;;;;6127659;23;20394;-83
2023/02/25 04:35:15;;;;;;;6.50;1.35;;;;;;;;;;6163315;23;20382;-83
2023/02/25 04:37:47;;;;;;;3.10;0.90;;;;;;;;;;6151228;23;20393;-83
2023/02/25 04:40:16;;;;;;;4.60;1.00;;;;;;;;;;6153609;23;20386;-83
2023/02/25 04:42:44;;;;;;;6.03;1.13;;;;;;;;;;6152867;23;20374;-85
2023/02/25 04:45:13;;;;;;;4.63;1.25;;;;;;;;;;6153438;23;20378;-83
2023/02/25 04:47:45;;;;;;;6.78;1.15;;;;;;;;;;6162900;23;20383;-84
2023/02/25 04:50:20;;;;;;;3.07;1.03;;;;;;;;;;6162610;23;20375;-83
2023/02/25 04:52:53;;;;;;;5.25;1.20;;;;;;;;;;6161999;23;20383;-83
2023/02/25 04:55:20;;;;;;;5.65;1.10;;;;;;;;;;6124780;23;20394;-84
2023/02/25 04:57:53;;;;;;;6.30;1.30;;;;;;;;;;6149976;23;20386;-82
2023/02/25 05:00:22;;;;;;;5.20;1.40;;;;;;;;;;6150676;23;20418;-83
2023/02/25 05:02:57;;;;;;;3.63;1.20;;;;;;;;;;6162952;23;20394;-83
2023/02/25 05:05:31;;;;;;;3.85;1.20;;;;;;;;;;6126142;23;20394;-83
2023/02/25 05:08:04;;;;;;;6.90;1.90;;;;;;;;;;6150208;23;20701;-84
2023/02/25 05:10:37;;;;;;;6.70;1.35;;;;;;;;;;6126290;23;20382;-83
2023/02/25 05:13:04;;;;;;;4.13;1.40;;;;;;;;;;6153107;23;20367;-83
2023/02/25 05:15:37;;;;;;;4.53;1.33;;;;;;;;;;6162933;23;20379;-83
2023/02/25 05:18:10;;;;;;;6.43;1.40;;;;;;;;;;6126083;23;20398;-83
2023/02/25 05:20:45;;;;;;;7.20;2.00;;;;;;;;;;6126042;23;20398;-83
2023/02/25 05:23:13;;;;;;;5.65;2.28;;;;;;;;;;6126571;23;20677;-83
2023/02/25 05:25:41;;;;;;;8.45;2.40;;;;;;;;;;6126049;23;20375;-83
2023/02/25 05:28:14;;;;;;;4.90;1.55;;;;;;;;;;6126351;23;20391;-83
2023/02/25 05:30:46;;;;;;;5.13;1.80;;;;;;;;;;6150875;23;20398;-84
2023/02/25 05:33:16;;;;;;;5.75;1.70;;;;;;;;;;6125763;23;20394;-83
2023/02/25 05:35:51;;;;;;;4.47;1.60;;;;;;;;;;6150436;23;20379;-83
2023/02/25 05:38:24;;;;;;;4.63;1.60;;;;;;;;;;6151018;23;20391;-83
2023/02/25 05:40:52;;;;;;;5.28;2.13;;;;;;;;;;6152695;23;20379;-83
2023/02/25 05:43:25;;;;;;;7.70;2.00;;;;;;;;;;6151035;23;20387;-83
2023/02/25 05:45:53;;;;;;;6.27;1.83;;;;;;;;;;6153013;23;20409;-83
2023/02/25 05:48:26;;;;;;;6.70;2.10;;;;;;;;;;6150987;23;20390;-83
2023/02/25 05:51:02;;;;;;;5.07;1.88;;;;;;;;;;6126157;23;20391;-83
2023/02/25 05:53:36;;;;;;;5.93;1.70;;;;;;;;;;6151875;23;20673;-83
2023/02/25 05:56:10;;;;;;;6.90;2.10;;;;;;;;;;6128632;23;20386;-84
2023/02/25 05:58:38;;;;;;;7.22;1.77;;;;;;;;;;6128187;23;21182;-83
2023/02/25 06:01:12;;;;;;;6.55;1.88;;;;;;;;;;6163317;23;20385;-83
2023/02/25 06:03:46;;;;;;;10.53;1.97;;;;;;;;;;6124791;23;20468;-83
2023/02/25 06:06:21;;;;;;;6.45;1.80;;;;;;;;;;6150829;23;20382;-83
2023/02/25 06:08:49;;;;;;;5.70;1.83;;;;;;;;;;6127337;23;20394;-83
2023/02/25 06:11:17;;;;;;;5.95;2.00;;;;;;;;;;6153801;23;20371;-83
2023/02/25 06:13:47;;;;;;;6.85;1.70;;;;;;;;;;6151691;23;20383;-83
2023/02/25 06:16:20;;;;;;;4.45;1.70;;;;;;;;;;6151713;23;20390;-83
2023/02/25 06:18:53;;;;;;;4.97;1.60;;;;;;;;;;6151899;23;20391;-83
2023/02/25 06:21:27;;;;;;;7.70;1.63;;;;;;;;;;6151517;23;21139;-82
2023/02/25 06:24:00;;;;;;;5.53;1.30;;;;;;;;;;6163622;23;21138;-82
2023/02/25 06:26:28;;;;;;;4.97;1.30;;;;;;;;;;6151166;23;20867;-83
2023/02/25 06:29:01;;;;;;;5.35;1.38;;;;;;;;;;6151933;23;20398;-83
2023/02/25 06:31:33;;;;;;;3.33;1.25;;;;;;;;;;6127663;23;20390;-83
2023/02/25 06:34:06;;;;;;;5.90;1.00;;;;;;;;;;6126577;23;20402;-83
2023/02/25 06:36:35;;;;;;;5.57;1.25;;;;;;;;;;6127410;23;20379;-82
2023/02/25 06:39:08;;;;;;;6.78;1.23;;;;;;;;;;6163797;23;20386;-83
2023/02/25 06:41:41;;;;;;;5.97;1.67;;;;;;;;;;6127026;23;20391;-83
2023/02/25 06:44:14;;;;;;;4.13;1.10;;;;;;;;;;6163360;23;20837;-83
2023/02/25 06:46:49;;;;;;;5.78;1.20;;;;;;;;;;6163439;23;20379;-82
2023/02/25 06:49:22;;;;;;;5.35;1.20;;;;;;;;;;6126738;23;20394;-83
2023/02/25 06:51:51;;;;;;;6.53;1.27;;;;;;;;;;6153804;23;20378;-83
2023/02/25 06:54:24;;;;;;;5.68;0.70;;;;;;;;;;6127410;23;20375;-83
2023/02/25 06:56:56;;;;;;;3.85;0.80;;;;;;;;;;6163802;23;20390;-83
2023/02/25 06:59:29;;;;;;;4.85;1.00;;;;;;;;;;6127148;23;20402;-83
2023/02/25 07:02:02;;;;;;;7.00;1.00;;;;;;;;;;6151614;23;20383;-83
2023/02/25 07:04:30;;;;;;;6.47;1.10;;;;;;;;;;6127248;23;20383;-83
2023/02/25 07:06:59;;;;;;;4.65;0.75;;;;;;;;;;6126642;23;20383;-84
2023/02/25 07:09:32;;;;;;;3.20;0.70;;;;;;;;;;6151696;23;20718;-83
2023/02/25 07:12:05;;;;;;;2.97;0.70;;;;;;;;;;6127573;23;20394;-83
2023/02/25 07:14:37;;;;;;;4.95;0.88;;;;;;;;;;6163815;23;20374;-83
2023/02/25 07:17:10;;;;;;;4.80;0.90;;;;;;;;;;6151463;23;20383;-83
2023/02/25 07:19:43;;;;;;;4.97;0.80;;;;;;;;;;6127308;23;20709;-82
2023/02/25 07:22:18;;;;;;;3.63;0.90;;;;;;;;;;6163557;23;20854;-82
2023/02/25 07:24:51;;;;;;;4.97;0.80;;;;;;;;;;6163749;23;20495;-83
2023/02/25 07:27:23;;;;;;;4.63;1.05;;;;;;;;;;6126670;23;20387;-83
2023/02/25 07:29:56;;;;;;;3.95;0.90;;;;;;;;;;6163396;23;20375;-84
2023/02/25 07:32:29;;;;;;;2.83;0.80;;;;;;;;;;6163680;23;20379;-82
2023/02/25 07:34:57;;;;;;;3.30;0.90;;;;;;;;;;6153821;23;20382;-83
2023/02/25 07:37:26;;;;;;;6.07;1.00;;;;;;;;;;6127272;23;20387;-83
2023/02/25 07:39:59;;;;;;;1.90;0.60;;;;;;;;;;6127477;23;20413;-82
2023/02/25 07:42:27;;;;;;;4.88;0.80;;;;;;;;;;6153269;23;20406;-83
2023/02/25 07:45:00;;;;;;;4.45;0.93;;;;;;;;;;6150687;23;20717;-83
2023/02/25 07:47:33;;;;;;;3.43;0.93;;;;;;;;;;6163328;23;20472;-82
2023/02/25 07:50:06;;;;;;;5.45;1.40;;;;;;;;;;6163290;23;20379;-82
2023/02/25 07:52:36;;;;;;;4.47;0.85;;;;;;;;;;6153589;23;20367;-84
2023/02/25 07:55:04;;;;;;;4.88;0.80;;;;;;;;;;6126927;23;20490;-83
2023/02/25 07:57:32;;;;;;;3.13;0.80;;;;;;;;;;6126052;23;20417;-83
2023/02/25 08:00:09;;;;;;;3.23;0.70;;;;;;;;;;6162704;23;20378;-83
2023/02/25 08:02:42;;;;;;;1.87;0.60;;;;;;;;;;6162925;23;20383;-83
2023/02/25 08:05:14;;;;;;;5.10;0.90;;;;;;;;;;6150992;23;20387;-83
2023/02/25 08:07:49;;;;;;;5.13;1.00;;;;;;;;;;6150598;23;20387;-85
2023/02/25 08:10:22;;;;;;;3.30;0.77;;;;;;;;;;6163025;23;20698;-83
2023/02/25 08:12:50;;;;;;;4.82;0.90;;;;;;;;;;6126644;23;20383;-83
2023/02/25 08:15:23;;;;;;;5.77;0.90;;;;;;;;;;6163413;23;20390;-83
2023/02/25 08:17:55;;;;;;;3.50;0.80;;;;;;;;;;6162932;23;20836;-83
2023/02/25 08:20:28;;;;;;;2.22;0.68;;;;;;;;;;6150617;23;20701;-84
2023/02/25 08:23:03;;;;;;;3.95;0.60;;;;;;;;;;6162994;23;20389;-83
2023/02/25 08:25:30;;;;;;;3.55;0.70;;;;;;;;;;6126912;23;20394;-83
2023/02/25 08:27:58;;;;;;;4.03;1.02;;;;;;;;;;6150878;23;20383;-84
2023/02/25 08:30:26;;;;;;;5.38;0.80;;;;;;;;;;6125702;23;20390;-83
2023/02/25 08:32:56;;;;;;;5.07;1.20;;;;;;;;;;6153083;23;20689;-83
2023/02/25 08:35:28;;;;;;;3.47;0.70;;;;;;;;;;6146000;23;20386;-83
2023/02/25 08:37:56;;;;;;;3.42;1.00;;;;;;;;;;6152363;23;20393;-85
2023/02/25 08:40:30;;;;;;;3.97;0.90;;;;;;;;;;6127270;23;20387;-83
2023/02/25 08:42:58;;;;;;;3.88;0.80;;;;;;;;;;6125330;23;20395;-83
2023/02/25 08:45:31;;;;;;;2.65;0.90;;;;;;;;;;6126576;23;20391;-85
2023/02/25 08:48:04;;;;;;;6.97;1.10;;;;;;;;;;6125957;23;20382;-83
2023/02/25 08:50:32;;;;;;;3.28;0.95;;;;;;;;;;6152159;23;20378;-85
2023/02/25 08:53:00;;;;;;;3.55;0.80;;;;;;;;;;6123058;23;20394;-83
2023/02/25 08:55:34;;;;;;;4.03;0.98;;;;;;;;;;6124793;23;20395;-83
2023/02/25 08:58:07;;;;;;;3.63;1.00;;;;;;;;;;6160137;23;20389;-83
2023/02/25 09:00:39;;;;;;;5.07;1.00;;;;;;;;;;6123957;23;20855;-82
2023/02/25 09:03:07;;;;;;;3.60;1.10;;;;;;;;;;6124321;23;20410;-81
2023/02/25 09:05:36;;;;;;;4.35;1.15;;;;;;;;;;6125215;23;20383;-82
2023/02/25 09:08:09;;;;;;;5.88;1.00;;;;;;;;;;6147678;23;21005;-84
2023/02/25 09:10:43;;;;;;;5.00;1.02;;;;;;;;;;6160888;23;20375;-84
2023/02/25 09:13:17;;;;;;;8.35;1.20;;;;;;;;;;6148655;23;20868;-84
2023/02/25 09:15:44;;;;;;;6.22;0.90;;;;;;;;;;6125298;23;20385;-85
2023/02/25 09:18:17;;;;;;;6.57;1.40;;;;;;;;;;6125357;23;20394;-86
2023/02/25 09:20:49;;;;;;;5.78;1.30;;;;;;;;;;6124445;23;20856;-83
2023/02/25 09:23:16;;;;;;;6.85;1.80;;;;;;;;;;6124644;23;20709;-83
2023/02/25 09:25:50;;;;;;;4.15;1.30;;;;;;;;;;6161899;23;20848;-83
2023/02/25 09:28:23;;;;;;;3.42;0.90;;;;;;;;;;6161825;23;20903;-83
2023/02/25 09:30:56;;;;;;;2.15;0.75;;;;;;;;;;6150266;23;20387;-83
2023/02/25 09:33:30;;;;;;;4.70;1.10;;;;;;;;;;6149394;23;20386;-82
2023/02/25 09:36:04;;;;;;;4.30;1.10;;;;;;;;;;6125896;23;20394;-83
2023/02/25 09:38:37;;;;;;;4.72;1.30;;;;;;;;;;6126240;23;20375;-83
2023/02/25 09:41:12;;;;;;;4.20;1.38;;;;;;;;;;6152576;23;20367;-83
2023/02/25 09:43:45;;;;;;;4.07;0.98;;;;;;;;;;6162109;23;20382;-84
2023/02/25 09:46:18;;;;;;;4.10;1.13;;;;;;;;;;6161921;23;20386;-83
2023/02/25 09:48:53;;;;;;;4.00;1.10;;;;;;;;;;6150189;23;20824;-84
2023/02/25 09:51:23;;;;;;;5.20;1.00;;;;;;;;;;6125403;23;20454;-85
2023/02/25 09:53:53;;;;;;;4.50;0.97;;;;;;;;;;6152375;23;20372;-84
2023/02/25 09:56:27;;;;;;;6.50;0.90;;;;;;;;;;6126177;23;20685;-84
2023/02/25 09:59:00;;;;;;;5.55;0.90;;;;;;;;;;6126042;23;20871;-83
2023/02/25 10:01:35;;;;;;;8.95;0.98;;;;;;;;;;6161224;23;20374;-81
2023/02/25 10:04:14;;;;;;;5.63;1.10;;;;;;;;;;6126707;23;20399;-85
2023/02/25 10:06:47;;;;;;;4.78;0.90;;;;;;;;;;6150257;23;20379;-83
2023/02/25 10:09:25;;;;;;;5.95;0.95;;;;;;;;;;6162456;23;20378;-84
2023/02/25 10:12:05;;;;;;;3.58;0.88;;;;;;;;;;6126135;23;20464;-81
2023/02/25 10:14:48;;;;;;;3.58;0.88;;;;;;;;;;6162274;23;20386;-83
2023/02/25 10:17:24;;;;;;;2.90;0.80;;;;;;;;;;6125271;23;20913;-83
2023/02/25 10:20:17;;;;;;;2.87;0.77;;;;;;;;;;6158379;23;20397;-81
2023/02/25 10:22:49;;;;;;;4.90;0.85;;;;;;;;;;6126562;23;20382;-82
2023/02/25 10:25:20;;;;;;;2.60;0.77;;;;;;;;;;6163172;23;20670;-83
2023/02/25 10:27:51;;;;;;;6.30;0.98;;;;;;;;;;6125723;23;20848;-82
2023/02/25 10:30:26;;;;;;;4.82;0.93;;;;;;;;;;6148814;23;21007;-82
2023/02/25 10:32:55;;;;;;;7.30;1.27;;;;;;;;;;6125846;23;20728;-81
2023/02/25 10:35:29;;;;;;;2.70;0.98;;;;;;;;;;6150224;23;20387;-82
2023/02/25 10:38:01;;;;;;;7.35;1.55;;;;;;;;;;6160756;23;20379;-81
2023/02/25 10:40:29;;;;;;;6.88;1.60;;;;;;;;;;6152002;23;20821;-81
2023/02/25 10:43:18;;;;;;;7.40;1.23;;;;;;;;;;6162059;23;20377;-84
2023/02/25 10:45:56;;;;;;;5.53;1.55;;;;;;;;;;6152888;23;20379;-82
2023/02/25 10:48:24;;;;;;;6.72;1.25;;;;;;;;;;6125580;23;20856;-83
2023/02/25 10:51:08;;;;;;;5.32;1.40;;;;;;;;;;6150291;23;20387;-82
2023/02/25 10:54:00;;;;;;;10.82;1.63;;;;;;;;;;6125866;23;20717;-82
2023/02/25 10:56:30;;;;;;;8.60;1.40;;;;;;;;;;6125518;23;20394;-83
2023/02/25 10:59:06;;;;;;;8.52;1.30;;;;;;;;;;6162039;23;20385;-84
2023/02/25 11:01:35;;;;;;;5.35;1.00;;;;;;;;;;6125544;23;20390;-82
2023/02/25 11:04:04;;;;;;;6.50;1.10;;;;;;;;;;6126534;23;20433;-83
2023/02/25 11:06:39;;;;;;;3.40;0.80;;;;;;;;;;6162247;23;20383;-83
2023/02/25 11:09:28;;;;;;;4.93;0.90;;;;;;;;;;6162654;23;20379;-83
2023/02/25 11:11:57;;;;;;;5.95;1.05;;;;;;;;;;6163077;23;20366;-83
2023/02/25 11:14:28;;;;;;;6.50;1.00;;;;;;;;;;6149829;23;20386;-82
2023/02/25 11:17:02;;;;;;;5.70;1.10;;;;;;;;;;6149770;23;20387;-83
2023/02/25 11:19:36;;;;;;;6.20;1.00;;;;;;;;;;6112085;23;20906;-83
2023/02/25 11:22:11;;;;;;;6.30;1.10;;;;;;;;;;6141285;23;20382;-85
2023/02/25 11:24:39;;;;;;;5.68;1.10;;;;;;;;;;6121366;23;20903;-85
2023/02/25 11:27:22;;;;;;;5.95;1.08;;;;;;;;;;6162491;23;20382;-85
2023/02/25 11:30:00;;;;;;;6.13;1.10;;;;;;;;;;6125067;23;20394;-84
2023/02/25 11:32:33;;;;;;;6.03;1.08;;;;;;;;;;6162376;23;20386;-83
2023/02/25 11:35:09;;;;;;;3.65;0.70;;;;;;;;;;6127202;23;20867;-82
2023/02/25 11:37:42;;;;;;;4.05;0.90;;;;;;;;;;6150717;23;20391;-83
2023/02/25 11:40:21;;;;;;;3.95;0.80;;;;;;;;;;6151562;23;20363;-82
2023/02/25 11:43:17;;;;;;;4.07;0.60;;;;;;;;;;6163395;23;20682;-84
2023/02/25 11:45:54;;;;;;;6.25;0.93;;;;;;;;;;6162928;23;20796;-86
2023/02/25 11:48:23;;;;;;;3.63;0.90;;;;;;;;;;6125419;23;20390;-85
2023/02/25 11:50:59;;;;;;;4.32;0.90;;;;;;;;;;6159290;23;20713;-85
2023/02/25 11:53:46;;;;;;;4.95;0.90;;;;;;;;;;6150560;23;20386;-84
2023/02/25 11:56:20;;;;;;;10.15;2.30;;;;;;;;;;6161819;23;20364;-85
2023/02/25 11:58:57;;;;;;;8.18;1.15;;;;;;;;;;6125994;23;20387;-85
2023/02/25 12:01:35;;;;;;;7.77;1.17;;;;;;;;;;6125147;23;20387;-85
2023/02/25 12:04:20;;;;;;;5.90;1.15;;;;;;;;;;6125881;23;20390;-84
2023/02/25 12:07:11;;;;;;;6.57;1.17;;;;;;;;;;6149531;23;20387;-85
2023/02/25 12:10:03;;;;;;;2.45;0.70;;;;;;;;;;6145096;23;20402;-85
2023/02/25 12:12:58;;;;;;;3.42;0.68;;;;;;;;;;6162222;23;20371;-85
2023/02/25 12:15:54;;;;;;;4.47;0.93;;;;;;;;;;6162170;23;20371;-85
2023/02/25 12:18:36;;;;;;;6.53;0.90;;;;;;;;;;6150444;23;20398;-83
2023/02/25 12:21:27;;;;;;;4.23;1.13;;;;;;;;;;6152498;23;20390;-85
2023/02/25 12:24:15;;;;;;;3.05;0.98;;;;;;;;;;6125717;23;20852;-85
2023/02/25 12:27:07;;;;;;;3.80;1.02;;;;;;;;;;6162034;23;20382;-85
2023/02/25 12:29:55;;;;;;;5.88;0.93;;;;;;;;;;6152704;23;20864;-85
2023/02/25 12:32:39;;;;;;;4.63;0.98;;;;;;;;;;6125500;23;20387;-85
2023/02/25 12:35:23;;;;;;;5.28;1.00;;;;;;;;;;6162291;23;20390;-85
2023/02/25 12:38:08;;;;;;;6.82;1.20;;;;;;;;;;6161198;23;20952;-86
2023/02/25 12:40:50;;;;;;;2.92;0.68;;;;;;;;;;6126036;23;20394;-87
2023/02/25 12:43:24;;;;;;;6.93;1.13;;;;;;;;;;6125837;23;20382;-86
2023/02/25 12:46:15;;;;;;;7.32;0.93;;;;;;;;;;6125431;23;20391;-85
2023/02/25 12:48:57;;;;;;;7.82;1.00;;;;;;;;;;6162007;23;20390;-86
2023/02/25 12:51:45;;;;;;;4.88;0.90;;;;;;;;;;6125668;23;20387;-85
2023/02/25 12:54:27;;;;;;;3.42;1.13;;;;;;;;;;6126096;23;21199;-86
2023/02/25 12:57:08;;;;;;;5.40;1.30;;;;;;;;;;6162637;23;20379;-86
2023/02/25 12:59:52;;;;;;;7.85;1.08;;;;;;;;;;6162589;23;20757;-85
2023/02/25 13:02:39;;;;;;;6.70;1.17;;;;;;;;;;6126613;23;20410;-85
2023/02/25 13:05:24;;;;;;;6.15;1.20;;;;;;;;;;6162219;23;20393;-85
2023/02/25 13:08:11;;;;;;;5.90;0.98;;;;;;;;;;6150174;23;20390;-84
2023/02/25 13:10:52;;;;;;;8.10;1.20;;;;;;;;;;6162531;23;20386;-85
2023/02/25 13:13:25;;;;;;;6.63;1.30;;;;;;;;;;6125429;23;20379;-84
2023/02/25 13:16:04;;;;;;;4.93;1.07;;;;;;;;;;6126091;23;20387;-84
2023/02/25 13:18:40;;;;;;;8.07;1.60;;;;;;;;;;6125912;23;20410;-86
2023/02/25 13:21:43;;;;;;;6.45;1.48;;;;;;;;;;6125984;23;20390;-87
2023/02/25 13:24:21;;;;;;;6.45;1.48;;;;;;;;;;6091048;23;20767;-86
2023/02/25 13:26:56;;;;;;;5.90;1.00;;;;;;;;;;6116495;23;20391;-86
2023/02/25 13:29:39;;;;;;;8.67;1.10;;;;;;;;;;6162721;23;20379;-86
2023/02/25 13:32:20;;;;;;;7.07;1.38;;;;;;;;;;6162662;23;20847;-85
2023/02/25 13:35:00;;;;;;;8.73;1.30;;;;;;;;;;6150353;23;20391;-84
2023/02/25 13:37:40;;;;;;;4.03;0.82;;;;;;;;;;6126264;23;20422;-86
2023/02/25 13:40:23;;;;;;;3.92;1.00;;;;;;;;;;6162645;23;20374;-85
2023/02/25 13:43:13;;;;;;;7.55;1.02;;;;;;;;;;6150471;23;20383;-85
2023/02/25 13:45:55;;;;;;;5.63;1.15;;;;;;;;;;6125524;23;20863;-87
2023/02/25 13:48:37;;;;;;;5.55;1.10;;;;;;;;;;6162551;23;20375;-87
2023/02/25 13:51:16;;;;;;;8.68;1.17;;;;;;;;;;6125752;23;20398;-84
2023/02/25 13:54:01;;;;;;;5.67;1.13;;;;;;;;;;6162368;23;20407;-84
2023/02/25 13:56:45;;;;;;;6.57;0.90;;;;;;;;;;6125920;23;20390;-86
2023/02/25 13:59:22;;;;;;;6.67;1.00;;;;;;;;;;6126067;23;20390;-86
2023/02/25 14:01:59;;;;;;;4.77;1.10;;;;;;;;;;6162618;23;20370;-85
2023/02/25 14:04:52;;;;;;;5.18;1.08;;;;;;;;;;6126400;23;20406;-85
2023/02/25 14:07:23;;;;;;;6.00;1.10;;;;;;;;;;6125883;23;20729;-84
2023/02/25 14:10:00;;;;;;;6.68;1.25;;;;;;;;;;6150289;23;20673;-84
2023/02/25 14:12:44;;;;;;;3.72;1.10;;;;;;;;;;6162442;23;20382;-85
2023/02/25 14:15:20;;;;;;;5.03;0.95;;;;;;;;;;6127097;23;20390;-84
2023/02/25 14:18:02;;;;;;;7.35;1.30;;;;;;;;;;6152379;23;20394;-85
2023/02/25 14:20:38;;;;;;;7.43;1.42;;;;;;;;;;6156739;23;20705;-85
2023/02/25 14:23:14;;;;;;;3.67;0.77;;;;;;;;;;6151663;23;20383;-85
2023/02/25 14:25:53;;;;;;;7.95;1.48;;;;;;;;;;6163793;23;20382;-86
2023/02/25 14:28:31;;;;;;;4.60;0.93;;;;;;;;;;6127804;23;20395;-85
2023/02/25 14:31:09;;;;;;;3.85;0.93;;;;;;;;;;6164351;23;20374;-86
2023/02/25 14:33:46;;;;;;;4.88;1.10;;;;;;;;;;6127905;23;20387;-86
2023/02/25 14:36:25;;;;;;;4.55;1.00;;;;;;;;;;6127501;23;20371;-86
2023/02/25 14:39:05;;;;;;;4.15;1.15;;;;;;;;;;6163358;23;20401;-85
2023/02/25 14:41:46;;;;;;;5.90;1.00;;;;;;;;;;6151965;23;20394;-85
2023/02/25 14:44:29;;;;;;;5.40;1.15;;;;;;;;;;6150273;23;20942;-85
2023/02/25 14:47:00;;;;;;;5.05;0.98;;;;;;;;;;6125501;23;20720;-87
2023/02/25 14:49:30;;;;;;;3.50;0.90;;;;;;;;;;6126736;23;20390;-86
2023/02/25 14:52:24;;;;;;;6.65;1.00;;;;;;;;;;6126178;23;20876;-84
2023/02/25 14:55:13;;;;;;;5.70;1.17;;;;;;;;;;6151048;23;20399;-85
2023/02/25 14:58:04;;;;;;;8.48;1.30;;;;;;;;;;6151297;23;20386;-84
2023/02/25 15:00:49;;;;;;;5.40;1.03;;;;;;;;;;6119864;23;20383;-87
2023/02/25 15:03:33;;;;;;;5.53;1.08;;;;;;;;;;6126930;23;20398;-85
2023/02/25 15:06:09;;;;;;;9.18;1.38;;;;;;;;;;6163631;23;20398;-85
2023/02/25 15:08:44;;;;;;;6.65;1.15;;;;;;;;;;6163627;23;20370;-86
2023/02/25 15:11:31;;;;;;;6.53;1.02;;;;;;;;;;6126709;23;20682;-85
2023/02/25 15:14:10;;;;;;;6.22;1.17;;;;;;;;;;6163533;23;20389;-85
2023/02/25 15:17:05;;;;;;;8.13;1.33;;;;;;;;;;6127212;23;20387;-87
2023/02/25 15:19:47;;;;;;;8.02;1.08;;;;;;;;;;6160362;23;20680;-84
2023/02/25 15:22:22;;;;;;;6.10;1.10;;;;;;;;;;6126466;23;20397;-87
2023/02/25 15:24:51;;;;;;;5.80;1.20;;;;;;;;;;6153760;23;20378;-86
2023/02/25 15:27:42;;;;;;;5.20;1.20;;;;;;;;;;6163025;23;20402;-86
2023/02/25 15:30:17;;;;;;;9.63;1.58;;;;;;;;;;6163608;23;20394;-86